sensor_id;sensor_type;location;lat;lon;timestamp;P1;durP1;ratioP1;P2;durP2;ratioP2
82781;SDS011;72517;47.260;11.422;2023-11-21T00:01:06;14.40;;;10.40;;
82781;SDS011;72517;47.260;11.422;2023-11-21T00:03:33;12.65;;;10.63;;
82781;SDS011;72517;47.260;11.422;2023-11-21T00:06:00;12.90;;;9.65;;
82781;SDS011;72517;47.260;11.422;2023-11-21T00:08:27;12.13;;;9.48;;
82781;SDS011;72517;47.260;11.422;2023-11-21T00:10:54;15.25;;;9.65;;
82781;SDS011;72517;47.260;11.422;2023-11-21T00:13:21;12.63;;;9.45;;
82781;SDS011;72517;47.260;11.422;2023-11-21T00:15:48;11.68;;;9.32;;
82781;SDS011;72517;47.260;11.422;2023-11-21T00:18:15;12.50;;;9.15;;
82781;SDS011;72517;47.260;11.422;2023-11-21T00:20:42;12.32;;;9.40;;
82781;SDS011;72517;47.260;11.422;2023-11-21T00:23:09;13.90;;;9.32;;
82781;SDS011;72517;47.260;11.422;2023-11-21T00:25:36;11.57;;;9.70;;
82781;SDS011;72517;47.260;11.422;2023-11-21T00:28:03;12.05;;;9.45;;
82781;SDS011;72517;47.260;11.422;2023-11-21T00:30:31;13.95;;;10.10;;
82781;SDS011;72517;47.260;11.422;2023-11-21T00:32:58;12.45;;;9.73;;
82781;SDS011;72517;47.260;11.422;2023-11-21T00:35:25;11.77;;;9.88;;
82781;SDS011;72517;47.260;11.422;2023-11-21T00:37:52;12.95;;;10.32;;
82781;SDS011;72517;47.260;11.422;2023-11-21T00:40:19;12.27;;;9.57;;
82781;SDS011;72517;47.260;11.422;2023-11-21T00:42:46;14.93;;;9.85;;
82781;SDS011;72517;47.260;11.422;2023-11-21T00:45:13;12.05;;;9.82;;
82781;SDS011;72517;47.260;11.422;2023-11-21T00:47:40;12.95;;;9.77;;
82781;SDS011;72517;47.260;11.422;2023-11-21T00:50:07;18.45;;;11.00;;
82781;SDS011;72517;47.260;11.422;2023-11-21T00:52:34;12.45;;;10.07;;
82781;SDS011;72517;47.260;11.422;2023-11-21T00:55:02;14.05;;;10.55;;
82781;SDS011;72517;47.260;11.422;2023-11-21T00:57:29;13.60;;;10.30;;
82781;SDS011;72517;47.260;11.422;2023-11-21T00:59:56;12.88;;;10.32;;
82781;SDS011;72517;47.260;11.422;2023-11-21T01:02:23;13.98;;;9.82;;
82781;SDS011;72517;47.260;11.422;2023-11-21T01:04:50;14.50;;;10.35;;
82781;SDS011;72517;47.260;11.422;2023-11-21T01:07:17;12.13;;;10.15;;
82781;SDS011;72517;47.260;11.422;2023-11-21T01:09:45;13.02;;;9.98;;
82781;SDS011;72517;47.260;11.422;2023-11-21T01:12:13;15.82;;;10.30;;
82781;SDS011;72517;47.260;11.422;2023-11-21T01:14:42;13.18;;;10.75;;
82781;SDS011;72517;47.260;11.422;2023-11-21T01:17:10;13.65;;;10.35;;
82781;SDS011;72517;47.260;11.422;2023-11-21T01:19:37;14.48;;;10.27;;
82781;SDS011;72517;47.260;11.422;2023-11-21T01:22:03;12.25;;;10.43;;
82781;SDS011;72517;47.260;11.422;2023-11-21T01:24:30;13.25;;;10.25;;
82781;SDS011;72517;47.260;11.422;2023-11-21T01:26:57;12.93;;;10.27;;
82781;SDS011;72517;47.260;11.422;2023-11-21T01:29:24;14.80;;;10.20;;
82781;SDS011;72517;47.260;11.422;2023-11-21T01:31:50;16.70;;;12.38;;
82781;SDS011;72517;47.260;11.422;2023-11-21T01:34:17;13.98;;;11.35;;
82781;SDS011;72517;47.260;11.422;2023-11-21T01:36:45;17.05;;;13.70;;
82781;SDS011;72517;47.260;11.422;2023-11-21T01:39:12;15.77;;;11.55;;
82781;SDS011;72517;47.260;11.422;2023-11-21T01:41:41;13.35;;;10.05;;
82781;SDS011;72517;47.260;11.422;2023-11-21T01:44:09;14.23;;;10.40;;
82781;SDS011;72517;47.260;11.422;2023-11-21T01:46:36;17.33;;;11.05;;
82781;SDS011;72517;47.260;11.422;2023-11-21T01:49:03;14.30;;;10.93;;
82781;SDS011;72517;47.260;11.422;2023-11-21T01:51:31;15.20;;;10.70;;
82781;SDS011;72517;47.260;11.422;2023-11-21T01:53:59;11.77;;;10.32;;
82781;SDS011;72517;47.260;11.422;2023-11-21T01:56:26;13.38;;;10.20;;
82781;SDS011;72517;47.260;11.422;2023-11-21T01:58:53;16.33;;;10.25;;
82781;SDS011;72517;47.260;11.422;2023-11-21T02:01:20;14.98;;;11.10;;
82781;SDS011;72517;47.260;11.422;2023-11-21T02:03:47;13.73;;;11.05;;
82781;SDS011;72517;47.260;11.422;2023-11-21T02:06:14;16.08;;;10.85;;
82781;SDS011;72517;47.260;11.422;2023-11-21T02:08:40;13.75;;;11.02;;
82781;SDS011;72517;47.260;11.422;2023-11-21T02:11:09;14.38;;;11.60;;
82781;SDS011;72517;47.260;11.422;2023-11-21T02:13:38;13.60;;;10.93;;
82781;SDS011;72517;47.260;11.422;2023-11-21T02:16:08;16.80;;;11.60;;
82781;SDS011;72517;47.260;11.422;2023-11-21T02:18:37;17.60;;;12.38;;
82781;SDS011;72517;47.260;11.422;2023-11-21T02:21:05;17.13;;;13.07;;
82781;SDS011;72517;47.260;11.422;2023-11-21T02:23:32;16.10;;;11.40;;
82781;SDS011;72517;47.260;11.422;2023-11-21T02:25:59;13.30;;;10.80;;
82781;SDS011;72517;47.260;11.422;2023-11-21T02:28:29;12.98;;;10.07;;
82781;SDS011;72517;47.260;11.422;2023-11-21T02:30:56;12.30;;;9.38;;
82781;SDS011;72517;47.260;11.422;2023-11-21T02:33:24;14.00;;;10.30;;
82781;SDS011;72517;47.260;11.422;2023-11-21T02:35:54;12.23;;;9.30;;
82781;SDS011;72517;47.260;11.422;2023-11-21T02:38:21;14.63;;;10.27;;
82781;SDS011;72517;47.260;11.422;2023-11-21T02:40:48;14.50;;;10.55;;
82781;SDS011;72517;47.260;11.422;2023-11-21T02:43:15;14.73;;;9.93;;
82781;SDS011;72517;47.260;11.422;2023-11-21T02:45:42;15.77;;;10.18;;
82781;SDS011;72517;47.260;11.422;2023-11-21T02:48:09;15.13;;;10.50;;
82781;SDS011;72517;47.260;11.422;2023-11-21T02:50:36;12.70;;;9.02;;
82781;SDS011;72517;47.260;11.422;2023-11-21T02:53:03;12.48;;;9.23;;
82781;SDS011;72517;47.260;11.422;2023-11-21T02:55:31;11.73;;;8.50;;
82781;SDS011;72517;47.260;11.422;2023-11-21T02:58:00;11.57;;;8.52;;
82781;SDS011;72517;47.260;11.422;2023-11-21T03:00:28;11.02;;;8.98;;
82781;SDS011;72517;47.260;11.422;2023-11-21T03:02:56;34.08;;;21.55;;
82781;SDS011;72517;47.260;11.422;2023-11-21T03:05:23;48.83;;;28.35;;
82781;SDS011;72517;47.260;11.422;2023-11-21T03:07:50;40.72;;;27.75;;
82781;SDS011;72517;47.260;11.422;2023-11-21T03:10:17;21.60;;;15.60;;
82781;SDS011;72517;47.260;11.422;2023-11-21T03:12:44;15.55;;;10.18;;
82781;SDS011;72517;47.260;11.422;2023-11-21T03:15:11;13.18;;;9.30;;
82781;SDS011;72517;47.260;11.422;2023-11-21T03:17:38;12.07;;;9.23;;
82781;SDS011;72517;47.260;11.422;2023-11-21T03:20:06;12.40;;;9.90;;
82781;SDS011;72517;47.260;11.422;2023-11-21T03:22:36;12.40;;;8.95;;
82781;SDS011;72517;47.260;11.422;2023-11-21T03:25:06;13.38;;;9.63;;
82781;SDS011;72517;47.260;11.422;2023-11-21T03:27:37;13.85;;;9.38;;
82781;SDS011;72517;47.260;11.422;2023-11-21T03:30:05;13.82;;;9.43;;
82781;SDS011;72517;47.260;11.422;2023-11-21T03:32:34;11.13;;;8.65;;
82781;SDS011;72517;47.260;11.422;2023-11-21T03:35:01;10.85;;;8.43;;
82781;SDS011;72517;47.260;11.422;2023-11-21T03:37:33;11.63;;;9.05;;
82781;SDS011;72517;47.260;11.422;2023-11-21T03:40:00;13.35;;;10.32;;
82781;SDS011;72517;47.260;11.422;2023-11-21T03:42:29;16.42;;;10.93;;
82781;SDS011;72517;47.260;11.422;2023-11-21T03:44:55;15.90;;;10.13;;
82781;SDS011;72517;47.260;11.422;2023-11-21T03:47:22;15.57;;;10.73;;
82781;SDS011;72517;47.260;11.422;2023-11-21T03:49:49;17.83;;;10.50;;
82781;SDS011;72517;47.260;11.422;2023-11-21T03:52:16;14.43;;;9.90;;
82781;SDS011;72517;47.260;11.422;2023-11-21T03:54:43;70.95;;;44.42;;
82781;SDS011;72517;47.260;11.422;2023-11-21T03:57:10;113.15;;;63.10;;
82781;SDS011;72517;47.260;11.422;2023-11-21T03:59:41;32.17;;;18.25;;
82781;SDS011;72517;47.260;11.422;2023-11-21T04:02:09;10.25;;;7.78;;
82781;SDS011;72517;47.260;11.422;2023-11-21T04:04:36;9.85;;;7.28;;
82781;SDS011;72517;47.260;11.422;2023-11-21T04:07:03;14.88;;;7.60;;
82781;SDS011;72517;47.260;11.422;2023-11-21T04:09:30;11.48;;;7.00;;
82781;SDS011;72517;47.260;11.422;2023-11-21T04:11:57;14.23;;;7.78;;
82781;SDS011;72517;47.260;11.422;2023-11-21T04:14:24;14.48;;;7.63;;
82781;SDS011;72517;47.260;11.422;2023-11-21T04:16:51;9.85;;;7.13;;
82781;SDS011;72517;47.260;11.422;2023-11-21T04:19:18;9.98;;;7.25;;
82781;SDS011;72517;47.260;11.422;2023-11-21T04:21:45;11.63;;;7.80;;
82781;SDS011;72517;47.260;11.422;2023-11-21T04:24:12;11.40;;;8.00;;
82781;SDS011;72517;47.260;11.422;2023-11-21T04:26:43;12.38;;;8.30;;
82781;SDS011;72517;47.260;11.422;2023-11-21T04:29:10;11.85;;;8.30;;
82781;SDS011;72517;47.260;11.422;2023-11-21T04:31:37;13.45;;;7.63;;
82781;SDS011;72517;47.260;11.422;2023-11-21T04:34:04;11.60;;;8.25;;
82781;SDS011;72517;47.260;11.422;2023-11-21T04:36:31;11.60;;;7.80;;
82781;SDS011;72517;47.260;11.422;2023-11-21T04:39:00;9.77;;;7.90;;
82781;SDS011;72517;47.260;11.422;2023-11-21T04:41:29;12.32;;;7.97;;
82781;SDS011;72517;47.260;11.422;2023-11-21T04:43:56;13.10;;;8.00;;
82781;SDS011;72517;47.260;11.422;2023-11-21T04:46:23;11.65;;;8.52;;
82781;SDS011;72517;47.260;11.422;2023-11-21T04:48:50;13.13;;;8.38;;
82781;SDS011;72517;47.260;11.422;2023-11-21T04:51:17;13.43;;;8.23;;
82781;SDS011;72517;47.260;11.422;2023-11-21T04:53:44;11.90;;;8.07;;
82781;SDS011;72517;47.260;11.422;2023-11-21T04:56:11;11.55;;;8.25;;
82781;SDS011;72517;47.260;11.422;2023-11-21T04:58:39;11.55;;;8.50;;
82781;SDS011;72517;47.260;11.422;2023-11-21T05:01:07;10.85;;;7.85;;
82781;SDS011;72517;47.260;11.422;2023-11-21T05:03:34;12.82;;;8.23;;
82781;SDS011;72517;47.260;11.422;2023-11-21T05:06:03;12.88;;;8.63;;
82781;SDS011;72517;47.260;11.422;2023-11-21T05:08:30;14.25;;;8.43;;
82781;SDS011;72517;47.260;11.422;2023-11-21T05:10:57;11.85;;;7.90;;
82781;SDS011;72517;47.260;11.422;2023-11-21T05:13:24;10.10;;;7.93;;
82781;SDS011;72517;47.260;11.422;2023-11-21T05:15:53;10.23;;;7.80;;
82781;SDS011;72517;47.260;11.422;2023-11-21T05:18:21;11.98;;;8.23;;
82781;SDS011;72517;47.260;11.422;2023-11-21T05:20:48;9.85;;;7.38;;
82781;SDS011;72517;47.260;11.422;2023-11-21T05:23:15;12.88;;;7.75;;
82781;SDS011;72517;47.260;11.422;2023-11-21T05:25:42;10.23;;;7.80;;
82781;SDS011;72517;47.260;11.422;2023-11-21T05:28:09;10.50;;;7.30;;
82781;SDS011;72517;47.260;11.422;2023-11-21T05:30:36;14.18;;;7.97;;
82781;SDS011;72517;47.260;11.422;2023-11-21T05:33:04;11.85;;;7.18;;
82781;SDS011;72517;47.260;11.422;2023-11-21T05:35:31;11.38;;;6.85;;
82781;SDS011;72517;47.260;11.422;2023-11-21T05:37:58;9.50;;;6.70;;
82781;SDS011;72517;47.260;11.422;2023-11-21T05:40:25;9.30;;;6.20;;
82781;SDS011;72517;47.260;11.422;2023-11-21T05:42:54;10.23;;;5.95;;
82781;SDS011;72517;47.260;11.422;2023-11-21T05:45:22;12.02;;;6.25;;
82781;SDS011;72517;47.260;11.422;2023-11-21T05:47:49;12.45;;;5.88;;
82781;SDS011;72517;47.260;11.422;2023-11-21T05:50:16;9.00;;;6.05;;
82781;SDS011;72517;47.260;11.422;2023-11-21T05:52:44;9.77;;;5.68;;
82781;SDS011;72517;47.260;11.422;2023-11-21T05:55:12;8.83;;;5.60;;
82781;SDS011;72517;47.260;11.422;2023-11-21T05:57:39;104.10;;;59.78;;
82781;SDS011;72517;47.260;11.422;2023-11-21T06:00:08;93.68;;;51.40;;
82781;SDS011;72517;47.260;11.422;2023-11-21T06:02:43;40.05;;;23.85;;
82781;SDS011;72517;47.260;11.422;2023-11-21T06:05:11;14.77;;;8.45;;
82781;SDS011;72517;47.260;11.422;2023-11-21T06:07:38;13.10;;;7.10;;
82781;SDS011;72517;47.260;11.422;2023-11-21T06:10:05;13.15;;;7.53;;
82781;SDS011;72517;47.260;11.422;2023-11-21T06:12:34;9.32;;;7.03;;
82781;SDS011;72517;47.260;11.422;2023-11-21T06:15:04;16.38;;;8.90;;
82781;SDS011;72517;47.260;11.422;2023-11-21T06:17:37;17.60;;;7.60;;
82781;SDS011;72517;47.260;11.422;2023-11-21T06:20:08;14.57;;;7.50;;
82781;SDS011;72517;47.260;11.422;2023-11-21T06:22:39;10.00;;;5.70;;
82781;SDS011;72517;47.260;11.422;2023-11-21T06:25:07;10.63;;;5.57;;
82781;SDS011;72517;47.260;11.422;2023-11-21T06:27:37;14.75;;;6.20;;
82781;SDS011;72517;47.260;11.422;2023-11-21T06:30:06;12.82;;;5.95;;
82781;SDS011;72517;47.260;11.422;2023-11-21T06:32:35;11.88;;;5.47;;
82781;SDS011;72517;47.260;11.422;2023-11-21T06:35:02;15.68;;;7.88;;
82781;SDS011;72517;47.260;11.422;2023-11-21T06:37:31;19.92;;;12.35;;
82781;SDS011;72517;47.260;11.422;2023-11-21T06:39:59;20.60;;;11.63;;
82781;SDS011;72517;47.260;11.422;2023-11-21T06:42:28;10.77;;;6.97;;
82781;SDS011;72517;47.260;11.422;2023-11-21T06:44:55;12.73;;;6.25;;
82781;SDS011;72517;47.260;11.422;2023-11-21T06:47:24;7.88;;;6.00;;
82781;SDS011;72517;47.260;11.422;2023-11-21T06:49:54;13.32;;;6.40;;
82781;SDS011;72517;47.260;11.422;2023-11-21T06:52:21;10.85;;;5.90;;
82781;SDS011;72517;47.260;11.422;2023-11-21T06:54:47;10.20;;;6.40;;
82781;SDS011;72517;47.260;11.422;2023-11-21T06:57:15;12.73;;;7.30;;
82781;SDS011;72517;47.260;11.422;2023-11-21T06:59:42;12.77;;;7.72;;
82781;SDS011;72517;47.260;11.422;2023-11-21T07:02:10;14.10;;;7.30;;
82781;SDS011;72517;47.260;11.422;2023-11-21T07:04:36;10.82;;;6.75;;
82781;SDS011;72517;47.260;11.422;2023-11-21T07:07:04;10.85;;;6.07;;
82781;SDS011;72517;47.260;11.422;2023-11-21T07:09:32;9.32;;;5.97;;
82781;SDS011;72517;47.260;11.422;2023-11-21T07:11:59;11.00;;;6.28;;
82781;SDS011;72517;47.260;11.422;2023-11-21T07:14:26;9.18;;;5.55;;
82781;SDS011;72517;47.260;11.422;2023-11-21T07:16:53;8.95;;;5.28;;
82781;SDS011;72517;47.260;11.422;2023-11-21T07:19:21;10.80;;;4.65;;
82781;SDS011;72517;47.260;11.422;2023-11-21T07:21:48;7.25;;;4.32;;
82781;SDS011;72517;47.260;11.422;2023-11-21T07:24:16;9.35;;;4.20;;
82781;SDS011;72517;47.260;11.422;2023-11-21T07:26:43;6.45;;;4.40;;
82781;SDS011;72517;47.260;11.422;2023-11-21T07:29:10;10.90;;;4.97;;
82781;SDS011;72517;47.260;11.422;2023-11-21T07:31:38;13.50;;;6.88;;
82781;SDS011;72517;47.260;11.422;2023-11-21T07:34:06;14.43;;;7.95;;
82781;SDS011;72517;47.260;11.422;2023-11-21T07:36:33;14.23;;;6.43;;
82781;SDS011;72517;47.260;11.422;2023-11-21T07:39:00;9.30;;;5.00;;
82781;SDS011;72517;47.260;11.422;2023-11-21T07:41:27;11.30;;;5.30;;
82781;SDS011;72517;47.260;11.422;2023-11-21T07:43:55;9.50;;;4.88;;
82781;SDS011;72517;47.260;11.422;2023-11-21T07:46:22;9.18;;;4.63;;
82781;SDS011;72517;47.260;11.422;2023-11-21T07:48:49;9.38;;;4.75;;
82781;SDS011;72517;47.260;11.422;2023-11-21T07:51:17;8.05;;;4.63;;
82781;SDS011;72517;47.260;11.422;2023-11-21T07:53:44;9.35;;;4.40;;
82781;SDS011;72517;47.260;11.422;2023-11-21T07:56:11;16.30;;;9.30;;
82781;SDS011;72517;47.260;11.422;2023-11-21T07:58:38;15.18;;;6.28;;
82781;SDS011;72517;47.260;11.422;2023-11-21T08:01:05;8.20;;;4.18;;
82781;SDS011;72517;47.260;11.422;2023-11-21T08:03:33;10.80;;;4.30;;
82781;SDS011;72517;47.260;11.422;2023-11-21T08:06:00;10.18;;;4.00;;
82781;SDS011;72517;47.260;11.422;2023-11-21T08:08:28;9.95;;;4.50;;
82781;SDS011;72517;47.260;11.422;2023-11-21T08:10:55;7.28;;;4.28;;
82781;SDS011;72517;47.260;11.422;2023-11-21T08:13:25;9.30;;;4.10;;
82781;SDS011;72517;47.260;11.422;2023-11-21T08:15:59;9.73;;;4.28;;
82781;SDS011;72517;47.260;11.422;2023-11-21T08:18:29;8.18;;;4.50;;
82781;SDS011;72517;47.260;11.422;2023-11-21T08:20:56;15.30;;;4.95;;
82781;SDS011;72517;47.260;11.422;2023-11-21T08:23:23;19.40;;;10.40;;
82781;SDS011;72517;47.260;11.422;2023-11-21T08:25:54;10.05;;;4.63;;
82781;SDS011;72517;47.260;11.422;2023-11-21T08:28:21;14.95;;;7.13;;
82781;SDS011;72517;47.260;11.422;2023-11-21T08:30:50;26.25;;;11.50;;
82781;SDS011;72517;47.260;11.422;2023-11-21T08:33:20;11.55;;;5.68;;
82781;SDS011;72517;47.260;11.422;2023-11-21T08:35:48;10.63;;;4.43;;
82781;SDS011;72517;47.260;11.422;2023-11-21T08:38:15;11.32;;;4.20;;
82781;SDS011;72517;47.260;11.422;2023-11-21T08:40:42;7.78;;;4.55;;
82781;SDS011;72517;47.260;11.422;2023-11-21T08:43:10;7.63;;;4.63;;
82781;SDS011;72517;47.260;11.422;2023-11-21T08:45:37;9.23;;;4.38;;
82781;SDS011;72517;47.260;11.422;2023-11-21T08:48:04;6.18;;;4.18;;
82781;SDS011;72517;47.260;11.422;2023-11-21T08:50:31;9.52;;;4.53;;
82781;SDS011;72517;47.260;11.422;2023-11-21T08:52:59;9.13;;;4.57;;
82781;SDS011;72517;47.260;11.422;2023-11-21T08:55:26;12.40;;;4.40;;
82781;SDS011;72517;47.260;11.422;2023-11-21T08:57:53;11.20;;;5.15;;
82781;SDS011;72517;47.260;11.422;2023-11-21T09:00:20;10.55;;;5.28;;
82781;SDS011;72517;47.260;11.422;2023-11-21T09:02:47;12.05;;;5.70;;
82781;SDS011;72517;47.260;11.422;2023-11-21T09:05:14;7.65;;;4.10;;
82781;SDS011;72517;47.260;11.422;2023-11-21T09:07:42;9.20;;;4.22;;
82781;SDS011;72517;47.260;11.422;2023-11-21T09:10:11;11.00;;;4.38;;
82781;SDS011;72517;47.260;11.422;2023-11-21T09:12:38;9.40;;;4.80;;
82781;SDS011;72517;47.260;11.422;2023-11-21T09:15:05;9.55;;;5.18;;
82781;SDS011;72517;47.260;11.422;2023-11-21T09:17:34;8.75;;;4.95;;
82781;SDS011;72517;47.260;11.422;2023-11-21T09:20:01;10.68;;;4.55;;
82781;SDS011;72517;47.260;11.422;2023-11-21T09:22:30;14.45;;;6.00;;
82781;SDS011;72517;47.260;11.422;2023-11-21T09:24:58;13.38;;;8.30;;
82781;SDS011;72517;47.260;11.422;2023-11-21T09:27:25;16.63;;;8.45;;
82781;SDS011;72517;47.260;11.422;2023-11-21T09:29:52;12.90;;;8.02;;
82781;SDS011;72517;47.260;11.422;2023-11-21T09:32:19;13.95;;;7.93;;
82781;SDS011;72517;47.260;11.422;2023-11-21T09:34:48;13.32;;;7.07;;
82781;SDS011;72517;47.260;11.422;2023-11-21T09:37:16;11.63;;;7.38;;
82781;SDS011;72517;47.260;11.422;2023-11-21T09:39:44;11.20;;;7.80;;
82781;SDS011;72517;47.260;11.422;2023-11-21T09:42:15;10.38;;;7.32;;
82781;SDS011;72517;47.260;11.422;2023-11-21T09:45:07;8.98;;;6.32;;
82781;SDS011;72517;47.260;11.422;2023-11-21T09:47:38;9.27;;;6.25;;
82781;SDS011;72517;47.260;11.422;2023-11-21T09:50:05;9.05;;;6.00;;
82781;SDS011;72517;47.260;11.422;2023-11-21T09:52:35;6.87;;;5.70;;
82781;SDS011;72517;47.260;11.422;2023-11-21T09:55:34;9.68;;;6.35;;
82781;SDS011;72517;47.260;11.422;2023-11-21T09:58:02;6.93;;;5.60;;
82781;SDS011;72517;47.260;11.422;2023-11-21T10:00:32;8.02;;;5.45;;
82781;SDS011;72517;47.260;11.422;2023-11-21T10:03:00;8.48;;;5.72;;
82781;SDS011;72517;47.260;11.422;2023-11-21T10:05:28;7.20;;;5.47;;
82781;SDS011;72517;47.260;11.422;2023-11-21T10:07:58;7.53;;;5.45;;
82781;SDS011;72517;47.260;11.422;2023-11-21T10:10:26;8.45;;;5.70;;
82781;SDS011;72517;47.260;11.422;2023-11-21T10:12:57;6.18;;;4.80;;
82781;SDS011;72517;47.260;11.422;2023-11-21T10:15:28;9.38;;;5.55;;
82781;SDS011;72517;47.260;11.422;2023-11-21T10:17:56;11.77;;;5.85;;
82781;SDS011;72517;47.260;11.422;2023-11-21T10:20:23;7.35;;;5.35;;
82781;SDS011;72517;47.260;11.422;2023-11-21T10:22:51;8.20;;;5.18;;
82781;SDS011;72517;47.260;11.422;2023-11-21T10:25:18;6.40;;;5.13;;
82781;SDS011;72517;47.260;11.422;2023-11-21T10:27:47;7.78;;;5.85;;
82781;SDS011;72517;47.260;11.422;2023-11-21T10:30:16;9.18;;;5.63;;
82781;SDS011;72517;47.260;11.422;2023-11-21T10:32:43;7.10;;;5.47;;
82781;SDS011;72517;47.260;11.422;2023-11-21T10:35:11;8.27;;;5.80;;
82781;SDS011;72517;47.260;11.422;2023-11-21T10:37:39;8.27;;;6.13;;
82781;SDS011;72517;47.260;11.422;2023-11-21T10:40:09;6.60;;;5.13;;
82781;SDS011;72517;47.260;11.422;2023-11-21T10:42:40;6.35;;;5.20;;
82781;SDS011;72517;47.260;11.422;2023-11-21T10:45:08;7.93;;;5.70;;
82781;SDS011;72517;47.260;11.422;2023-11-21T10:47:41;7.07;;;5.78;;
82781;SDS011;72517;47.260;11.422;2023-11-21T10:50:10;8.18;;;5.57;;
82781;SDS011;72517;47.260;11.422;2023-11-21T10:52:37;6.82;;;5.57;;
82781;SDS011;72517;47.260;11.422;2023-11-21T10:55:20;7.57;;;5.78;;
82781;SDS011;72517;47.260;11.422;2023-11-21T10:57:49;7.28;;;5.53;;
82781;SDS011;72517;47.260;11.422;2023-11-21T11:00:19;7.95;;;5.28;;
82781;SDS011;72517;47.260;11.422;2023-11-21T11:02:48;9.48;;;5.82;;
82781;SDS011;72517;47.260;11.422;2023-11-21T11:05:19;8.52;;;5.88;;
82781;SDS011;72517;47.260;11.422;2023-11-21T11:07:50;8.38;;;6.00;;
82781;SDS011;72517;47.260;11.422;2023-11-21T11:10:19;13.70;;;6.68;;
82781;SDS011;72517;47.260;11.422;2023-11-21T11:12:51;7.90;;;6.15;;
82781;SDS011;72517;47.260;11.422;2023-11-21T11:15:20;8.65;;;6.65;;
82781;SDS011;72517;47.260;11.422;2023-11-21T11:17:48;8.43;;;5.75;;
82781;SDS011;72517;47.260;11.422;2023-11-21T11:20:16;11.55;;;6.60;;
82781;SDS011;72517;47.260;11.422;2023-11-21T11:25:49;11.45;;;6.93;;
82781;SDS011;72517;47.260;11.422;2023-11-21T11:28:57;12.90;;;6.90;;
82781;SDS011;72517;47.260;11.422;2023-11-21T11:31:53;9.93;;;6.68;;
82781;SDS011;72517;47.260;11.422;2023-11-21T11:37:03;11.55;;;6.75;;
82781;SDS011;72517;47.260;11.422;2023-11-21T11:39:37;12.00;;;6.93;;
82781;SDS011;72517;47.260;11.422;2023-11-21T11:42:07;11.40;;;6.90;;
82781;SDS011;72517;47.260;11.422;2023-11-21T11:47:14;13.38;;;7.63;;
82781;SDS011;72517;47.260;11.422;2023-11-21T11:50:01;13.85;;;8.35;;
82781;SDS011;72517;47.260;11.422;2023-11-21T11:52:42;15.27;;;8.77;;
82781;SDS011;72517;47.260;11.422;2023-11-21T11:55:16;12.82;;;8.30;;
82781;SDS011;72517;47.260;11.422;2023-11-21T11:57:48;12.75;;;7.95;;
82781;SDS011;72517;47.260;11.422;2023-11-21T12:02:45;16.80;;;8.30;;
82781;SDS011;72517;47.260;11.422;2023-11-21T12:05:14;20.75;;;13.25;;
82781;SDS011;72517;47.260;11.422;2023-11-21T12:07:46;25.35;;;16.13;;
82781;SDS011;72517;47.260;11.422;2023-11-21T12:10:18;39.53;;;24.67;;
82781;SDS011;72517;47.260;11.422;2023-11-21T12:12:59;16.15;;;9.60;;
82781;SDS011;72517;47.260;11.422;2023-11-21T12:15:27;13.00;;;8.25;;
82781;SDS011;72517;47.260;11.422;2023-11-21T12:17:56;12.30;;;8.32;;
82781;SDS011;72517;47.260;11.422;2023-11-21T12:20:24;12.38;;;8.50;;
82781;SDS011;72517;47.260;11.422;2023-11-21T12:22:58;11.02;;;8.40;;
82781;SDS011;72517;47.260;11.422;2023-11-21T12:25:26;12.13;;;8.50;;
82781;SDS011;72517;47.260;11.422;2023-11-21T12:27:57;10.98;;;8.98;;
82781;SDS011;72517;47.260;11.422;2023-11-21T12:30:28;14.05;;;10.30;;
82781;SDS011;72517;47.260;11.422;2023-11-21T12:32:57;13.93;;;9.48;;
82781;SDS011;72517;47.260;11.422;2023-11-21T12:35:27;12.85;;;9.60;;
82781;SDS011;72517;47.260;11.422;2023-11-21T12:37:59;12.05;;;8.82;;
82781;SDS011;72517;47.260;11.422;2023-11-21T12:40:27;16.08;;;8.80;;
82781;SDS011;72517;47.260;11.422;2023-11-21T12:42:56;12.90;;;8.38;;
82781;SDS011;72517;47.260;11.422;2023-11-21T12:45:26;11.95;;;8.30;;
82781;SDS011;72517;47.260;11.422;2023-11-21T12:50:28;10.18;;;8.32;;
82781;SDS011;72517;47.260;11.422;2023-11-21T12:53:02;11.82;;;8.48;;
82781;SDS011;72517;47.260;11.422;2023-11-21T12:55:31;10.80;;;7.45;;
82781;SDS011;72517;47.260;11.422;2023-11-21T12:58:02;10.48;;;7.55;;
82781;SDS011;72517;47.260;11.422;2023-11-21T13:00:37;11.25;;;7.70;;
82781;SDS011;72517;47.260;11.422;2023-11-21T13:03:17;8.02;;;5.50;;
82781;SDS011;72517;47.260;11.422;2023-11-21T13:05:50;7.32;;;5.03;;
82781;SDS011;72517;47.260;11.422;2023-11-21T13:08:19;9.35;;;4.40;;
82781;SDS011;72517;47.260;11.422;2023-11-21T13:10:51;9.50;;;4.78;;
82781;SDS011;72517;47.260;11.422;2023-11-21T13:13:20;9.23;;;5.47;;
82781;SDS011;72517;47.260;11.422;2023-11-21T13:15:47;7.05;;;5.03;;
82781;SDS011;72517;47.260;11.422;2023-11-21T13:18:25;10.52;;;4.80;;
82781;SDS011;72517;47.260;11.422;2023-11-21T13:20:53;9.02;;;4.60;;
82781;SDS011;72517;47.260;11.422;2023-11-21T13:23:22;7.28;;;5.07;;
82781;SDS011;72517;47.260;11.422;2023-11-21T13:25:49;6.45;;;4.60;;
82781;SDS011;72517;47.260;11.422;2023-11-21T13:28:16;7.75;;;4.53;;
82781;SDS011;72517;47.260;11.422;2023-11-21T13:30:46;8.20;;;5.50;;
82781;SDS011;72517;47.260;11.422;2023-11-21T13:33:13;9.07;;;4.90;;
82781;SDS011;72517;47.260;11.422;2023-11-21T13:35:43;7.30;;;4.18;;
82781;SDS011;72517;47.260;11.422;2023-11-21T13:38:14;6.82;;;3.90;;
82781;SDS011;72517;47.260;11.422;2023-11-21T13:40:42;6.93;;;4.10;;
82781;SDS011;72517;47.260;11.422;2023-11-21T13:43:15;6.40;;;3.92;;
82781;SDS011;72517;47.260;11.422;2023-11-21T13:45:45;7.03;;;4.65;;
82781;SDS011;72517;47.260;11.422;2023-11-21T13:48:15;6.70;;;4.90;;
82781;SDS011;72517;47.260;11.422;2023-11-21T13:50:50;12.40;;;6.85;;
82781;SDS011;72517;47.260;11.422;2023-11-21T13:53:22;11.88;;;6.72;;
82781;SDS011;72517;47.260;11.422;2023-11-21T13:55:50;9.95;;;5.90;;
82781;SDS011;72517;47.260;11.422;2023-11-21T13:58:22;9.95;;;5.72;;
82781;SDS011;72517;47.260;11.422;2023-11-21T14:01:00;18.02;;;10.07;;
82781;SDS011;72517;47.260;11.422;2023-11-21T14:03:31;12.82;;;8.45;;
82781;SDS011;72517;47.260;11.422;2023-11-21T14:06:15;9.23;;;5.90;;
82781;SDS011;72517;47.260;11.422;2023-11-21T14:08:49;8.10;;;5.72;;
82781;SDS011;72517;47.260;11.422;2023-11-21T14:11:18;11.05;;;6.68;;
82781;SDS011;72517;47.260;11.422;2023-11-21T14:13:47;8.90;;;6.55;;
82781;SDS011;72517;47.260;11.422;2023-11-21T14:16:14;11.30;;;6.28;;
82781;SDS011;72517;47.260;11.422;2023-11-21T14:18:44;11.40;;;6.45;;
82781;SDS011;72517;47.260;11.422;2023-11-21T14:21:20;11.25;;;6.95;;
82781;SDS011;72517;47.260;11.422;2023-11-21T14:23:47;10.90;;;5.78;;
82781;SDS011;72517;47.260;11.422;2023-11-21T14:26:14;8.25;;;6.25;;
82781;SDS011;72517;47.260;11.422;2023-11-21T14:28:41;10.20;;;6.50;;
82781;SDS011;72517;47.260;11.422;2023-11-21T14:31:09;9.85;;;5.80;;
82781;SDS011;72517;47.260;11.422;2023-11-21T14:36:05;8.05;;;5.13;;
82781;SDS011;72517;47.260;11.422;2023-11-21T14:38:35;10.65;;;5.70;;
82781;SDS011;72517;47.260;11.422;2023-11-21T14:41:04;7.20;;;5.38;;
82781;SDS011;72517;47.260;11.422;2023-11-21T14:43:34;9.13;;;6.10;;
82781;SDS011;72517;47.260;11.422;2023-11-21T14:46:02;10.00;;;5.93;;
82781;SDS011;72517;47.260;11.422;2023-11-21T14:48:31;9.20;;;6.00;;